createdAt,value
2018-07-09T00:02:33.275Z,17.27
2018-07-09T00:07:29.105Z,17.20
2018-07-09T00:12:25.015Z,17.19
2018-07-09T00:17:20.817Z,17.04
2018-07-09T00:22:16.651Z,16.93
2018-07-09T00:27:12.083Z,16.99
2018-07-09T00:32:08.213Z,16.97
2018-07-09T00:37:04.045Z,17.16
2018-07-09T00:42:00.367Z,17.22
2018-07-09T00:46:56.315Z,17.05
2018-07-09T00:51:52.103Z,17.11
2018-07-09T00:56:47.941Z,17.02
2018-07-09T01:01:44.723Z,16.79
2018-07-09T01:06:39.952Z,16.49
2018-07-09T01:11:35.418Z,16.28
2018-07-09T01:16:31.164Z,16.01
2018-07-09T01:21:27.844Z,15.97
2018-07-09T01:26:23.665Z,16.13
2018-07-09T01:31:19.462Z,16.26
2018-07-09T01:36:15.379Z,16.01
2018-07-09T01:41:11.247Z,16.10
2018-07-09T01:46:08.489Z,16.21
2018-07-09T01:51:05.058Z,16.17
2018-07-09T01:56:01.716Z,16.33
2018-07-09T02:00:58.442Z,16.16
2018-07-09T02:05:55.514Z,16.02
2018-07-09T02:10:51.358Z,16.10
2018-07-09T02:15:48.951Z,15.98
2018-07-09T02:20:44.350Z,15.86
2018-07-09T02:25:40.905Z,15.77
2018-07-09T02:30:37.796Z,15.79
2018-07-09T02:35:33.360Z,15.67
2018-07-09T02:40:28.991Z,15.57
2018-07-09T02:45:24.921Z,15.35
2018-07-09T02:50:20.818Z,15.47
2018-07-09T02:55:16.489Z,15.40
2018-07-09T03:00:13.306Z,15.39
2018-07-09T03:05:09.123Z,15.35
2018-07-09T03:10:04.880Z,15.31
2018-07-09T03:15:01.581Z,15.35
2018-07-09T03:19:58.145Z,15.54
2018-07-09T03:24:53.788Z,15.55
2018-07-09T03:29:49.495Z,15.37
2018-07-09T03:34:45.958Z,15.40
2018-07-09T03:39:42.132Z,15.33
2018-07-09T03:44:38.699Z,15.17
2018-07-09T03:49:35.695Z,15.40
2018-07-09T03:54:31.897Z,15.35
2018-07-09T03:59:28.296Z,15.19
2018-07-09T04:04:25.124Z,15.24
2018-07-09T04:09:20.679Z,15.10
2018-07-09T04:14:16.616Z,15.21
2018-07-09T04:19:12.425Z,15.28
2018-07-09T04:24:09.287Z,15.29
2018-07-09T04:29:06.529Z,15.28
2018-07-09T04:34:01.989Z,15.43
2018-07-09T04:38:58.893Z,15.94
2018-07-09T04:43:56.765Z,17.20
2018-07-09T04:48:53.597Z,18.00
2018-07-09T04:53:51.649Z,18.81
2018-07-09T04:58:48.740Z,18.93
2018-07-09T05:03:45.242Z,18.95
2018-07-09T05:08:42.155Z,19.71
2018-07-09T05:13:39.011Z,20.62
2018-07-09T05:18:35.888Z,21.18
2018-07-09T05:23:32.709Z,22.18
2018-07-09T05:28:29.466Z,22.47
2018-07-09T05:33:26.823Z,22.80
2018-07-09T05:38:21.850Z,22.55
2018-07-09T05:43:19.776Z,22.07
2018-07-09T05:48:16.196Z,21.99
2018-07-09T05:53:13.660Z,21.00
2018-07-09T05:58:08.512Z,21.70
2018-07-09T06:03:04.427Z,21.55
2018-07-09T06:07:59.657Z,21.51
2018-07-09T06:12:55.842Z,20.82
2018-07-09T06:17:50.620Z,20.19
2018-07-09T06:22:46.120Z,20.13
2018-07-09T06:27:42.683Z,20.03
2018-07-09T06:32:37.757Z,20.04
2018-07-09T06:37:33.429Z,20.03
2018-07-09T06:42:29.074Z,19.89
2018-07-09T06:47:26.109Z,20.26
2018-07-09T06:52:23.066Z,20.18
2018-07-09T06:57:19.006Z,20.03
2018-07-09T07:02:15.025Z,20.04
2018-07-09T07:07:11.651Z,20.32
2018-07-09T07:12:08.170Z,20.70
2018-07-09T07:17:04.424Z,20.60
2018-07-09T07:22:01.182Z,20.92
2018-07-09T07:26:58.445Z,20.44
2018-07-09T07:31:54.424Z,20.59
2018-07-09T07:36:50.619Z,21.32
2018-07-09T07:41:46.598Z,21.35
2018-07-09T07:46:44.028Z,20.84
2018-07-09T07:51:40.284Z,20.24
2018-07-09T07:56:36.395Z,20.87
2018-07-09T08:01:32.542Z,21.42
2018-07-09T08:06:29.647Z,21.55
2018-07-09T08:11:47.731Z,21.40
2018-07-09T08:16:25.213Z,21.64
2018-07-09T08:21:23.067Z,21.87
2018-07-09T08:26:20.381Z,22.14
2018-07-09T08:31:17.796Z,23.59
2018-07-09T08:36:16.760Z,24.77
2018-07-09T08:41:14.538Z,24.65
2018-07-09T08:46:11.679Z,25.08
2018-07-09T08:51:07.161Z,25.28
2018-07-09T08:56:04.387Z,25.58
2018-07-09T09:01:01.859Z,25.87
2018-07-09T09:05:57.952Z,25.72
2018-07-09T09:10:56.116Z,26.00
2018-07-09T09:15:51.781Z,26.06
2018-07-09T09:20:46.949Z,24.50
2018-07-09T09:25:40.890Z,23.21
2018-07-09T09:30:35.450Z,23.13
2018-07-09T09:35:30.994Z,23.36
2018-07-09T09:40:26.670Z,23.58
2018-07-09T09:45:23.555Z,23.61
2018-07-09T09:50:19.745Z,23.02
2018-07-09T09:55:15.414Z,23.23
2018-07-09T10:00:11.356Z,23.20
2018-07-09T10:05:07.878Z,22.88
2018-07-09T10:10:03.262Z,22.91
2018-07-09T10:14:59.710Z,23.47
2018-07-09T10:19:56.495Z,23.56
2018-07-09T10:24:52.930Z,23.86
2018-07-09T10:29:50.428Z,23.66
2018-07-09T10:34:45.764Z,23.54
2018-07-09T10:39:42.718Z,23.10
2018-07-09T10:44:37.446Z,22.90
2018-07-09T10:49:32.983Z,22.88
2018-07-09T10:54:29.469Z,22.94
2018-07-09T10:59:25.399Z,22.30
2018-07-09T11:04:20.843Z,22.14
2018-07-09T11:09:17.662Z,22.23
2018-07-09T11:14:13.184Z,22.25
2018-07-09T11:19:09.077Z,22.17
2018-07-09T11:24:04.948Z,22.28
2018-07-09T11:29:01.279Z,22.06
2018-07-09T11:33:58.171Z,21.92
2018-07-09T11:38:54.748Z,21.92
2018-07-09T11:43:51.663Z,22.17
2018-07-09T11:48:47.747Z,22.38
2018-07-09T11:53:44.273Z,22.88
2018-07-09T11:58:42.286Z,23.39
2018-07-09T12:03:38.458Z,23.13
2018-07-09T12:08:34.491Z,23.25
2018-07-09T12:13:30.238Z,23.12
2018-07-09T12:18:26.069Z,23.20
2018-07-09T12:23:23.101Z,23.34
2018-07-09T12:28:18.983Z,23.12
2018-07-09T12:33:16.453Z,23.61
2018-07-09T12:38:19.945Z,25.18
2018-07-09T12:43:15.707Z,25.62
2018-07-09T12:48:11.867Z,25.66
2018-07-09T12:53:07.989Z,25.40
2018-07-09T12:58:04.731Z,25.83
2018-07-09T13:03:02.771Z,26.15
2018-07-09T13:08:00.247Z,27.37
2018-07-09T13:12:55.047Z,25.95
2018-07-09T13:17:49.355Z,24.78
2018-07-09T13:22:45.421Z,24.76
2018-07-09T13:27:40.586Z,24.95
2018-07-09T13:32:36.232Z,24.86
2018-07-09T13:37:32.411Z,24.50
2018-07-09T13:42:27.658Z,24.21
2018-07-09T13:47:24.277Z,24.16
2018-07-09T13:52:20.429Z,24.47
2018-07-09T13:57:16.728Z,24.57
2018-07-09T14:02:12.584Z,24.30
2018-07-09T14:07:08.622Z,24.17
2018-07-09T14:12:05.228Z,23.91
2018-07-09T14:17:00.592Z,23.76
2018-07-09T14:21:56.129Z,23.54
2018-07-09T14:26:53.010Z,23.47
2018-07-09T14:31:48.324Z,23.50
2018-07-09T14:36:44.374Z,23.40
2018-07-09T14:41:40.536Z,23.23
2018-07-09T14:46:36.322Z,23.10
2018-07-09T14:51:32.286Z,23.00
2018-07-09T14:56:28.001Z,22.85
2018-07-09T15:01:25.003Z,22.55
2018-07-09T15:06:21.377Z,22.53
2018-07-09T15:11:18.643Z,22.84
2018-07-09T15:16:14.995Z,23.15
2018-07-09T15:21:11.925Z,22.91
2018-07-09T15:26:08.672Z,23.02
2018-07-09T15:31:05.930Z,23.18
2018-07-09T15:36:03.440Z,23.51
2018-07-09T15:40:59.348Z,23.58
2018-07-09T15:45:55.805Z,23.61
2018-07-09T15:50:52.658Z,23.66
2018-07-09T15:55:48.521Z,23.27
2018-07-09T16:00:44.960Z,23.24
2018-07-09T16:05:40.597Z,23.31
2018-07-09T16:10:36.499Z,23.40
2018-07-09T16:15:32.527Z,23.46
2018-07-09T16:20:28.810Z,23.43
2018-07-09T16:25:24.941Z,23.48
2018-07-09T16:30:20.808Z,23.13
2018-07-09T16:35:16.596Z,23.24
2018-07-09T16:40:12.241Z,22.93
2018-07-09T16:45:07.917Z,22.81
2018-07-09T16:50:03.965Z,22.48
2018-07-09T16:54:59.676Z,22.38
2018-07-09T16:59:55.293Z,22.20
2018-07-09T17:04:51.298Z,22.13
2018-07-09T17:09:47.787Z,21.80
2018-07-09T17:14:43.779Z,21.80
2018-07-09T17:19:40.825Z,21.76
2018-07-09T17:24:37.411Z,21.48
2018-07-09T17:29:34.073Z,21.45
2018-07-09T17:34:29.810Z,21.45
2018-07-09T17:39:25.650Z,21.37
2018-07-09T17:44:21.224Z,20.97
2018-07-09T17:49:17.334Z,20.74
2018-07-09T17:54:13.173Z,20.72
2018-07-09T17:59:09.840Z,20.47
2018-07-09T18:04:05.177Z,20.31
2018-07-09T18:09:00.664Z,20.26
2018-07-09T18:13:57.391Z,19.96
2018-07-09T18:18:52.901Z,19.64
2018-07-09T18:23:48.640Z,19.37
2018-07-09T18:28:45.356Z,19.37
2018-07-09T18:33:41.802Z,19.37
2018-07-09T18:38:37.292Z,19.27
2018-07-09T18:43:34.147Z,19.11
2018-07-09T18:48:29.628Z,19.27
2018-07-09T18:53:26.534Z,19.11
2018-07-09T18:58:22.095Z,19.15
2018-07-09T19:03:17.730Z,18.99
2018-07-09T19:08:14.553Z,18.98
2018-07-09T19:13:09.923Z,18.99
2018-07-09T19:18:06.833Z,18.81
2018-07-09T19:23:03.545Z,18.84
2018-07-09T19:27:58.931Z,18.81
2018-07-09T19:32:55.291Z,18.92
2018-07-09T19:37:51.897Z,18.88
2018-07-09T19:42:48.935Z,18.88
2018-07-09T19:47:45.554Z,18.74
2018-07-09T19:52:41.128Z,18.78
2018-07-09T19:57:37.519Z,18.86
2018-07-09T20:02:34.021Z,18.63
2018-07-09T20:07:30.800Z,18.71
2018-07-09T20:12:25.993Z,18.68
2018-07-09T20:17:22.279Z,18.65
2018-07-09T20:22:19.604Z,18.70
2018-07-09T20:27:15.187Z,18.55
2018-07-09T20:32:12.260Z,18.41
2018-07-09T20:37:09.055Z,18.50
2018-07-09T20:42:04.515Z,18.35
2018-07-09T20:47:00.530Z,18.22
2018-07-09T20:51:57.075Z,18.15
2018-07-09T20:56:52.817Z,18.04
2018-07-09T21:01:48.329Z,17.95
2018-07-09T21:06:44.249Z,17.80
2018-07-09T21:11:41.110Z,17.79
2018-07-09T21:16:37.611Z,17.74
2018-07-09T21:21:34.574Z,17.79
2018-07-09T21:26:31.760Z,17.78
2018-07-09T21:31:28.362Z,17.72
2018-07-09T21:36:24.625Z,17.80
2018-07-09T21:41:20.278Z,17.76
2018-07-09T21:46:16.696Z,17.70
2018-07-09T21:51:12.793Z,17.67
2018-07-09T21:56:08.298Z,17.57
2018-07-09T22:01:04.391Z,17.49
2018-07-09T22:06:00.834Z,17.59
2018-07-09T22:10:56.651Z,17.45
2018-07-09T22:15:52.339Z,17.30
2018-07-09T22:20:48.082Z,17.36
2018-07-09T22:25:44.114Z,17.38
2018-07-09T22:30:39.770Z,17.30
2018-07-09T22:35:35.267Z,17.14
2018-07-09T22:40:32.240Z,17.05
2018-07-09T22:45:27.858Z,17.04
2018-07-09T22:50:24.478Z,16.86
2018-07-09T22:55:20.067Z,16.89
2018-07-09T23:00:16.074Z,16.94
2018-07-09T23:05:11.911Z,17.02
2018-07-09T23:10:07.722Z,17.04
2018-07-09T23:15:03.689Z,17.01
2018-07-09T23:19:59.499Z,16.93
2018-07-09T23:24:55.843Z,16.89
2018-07-09T23:29:52.728Z,16.94
2018-07-09T23:34:48.771Z,16.83
2018-07-09T23:39:44.552Z,16.71
2018-07-09T23:44:41.597Z,16.69
2018-07-09T23:49:38.096Z,16.81
2018-07-09T23:54:33.609Z,16.75
2018-07-09T23:59:29.310Z,16.76
